Broaddus, Texas
Current Conditions -  °F | °C
As of 9:53 AM on Saturday 25 Oct 2014 (Local Time) from KLFK Reporting Station
Clear Clear  
Wind Chill: 70°   Ceiling: Unl
Heat Index: 70°   Visibility: 10mi
Dew Point: 56°   Wind: 3mph
Humidity: 61%   Direction: 240°WSW
Pressure: 30.19"   Gusts: NA
Location:  31.31°N, 94.27°W
Report Text: KLFK 251453Z AUTO 24003KT 10SM CLR 21/13 A3019 RMK AO2 SLP222 T02110133 51015
Loading
Personal Weather Stations






























Interactive Weather Map New forecast layout! Learn more

10-Day Weather Forecast

Advertisements
Track Severe Weather on mobile